sensor_id;sensor_type;location;lat;lon;timestamp;temperature;humidity
13711;DHT22;6927;51.256;9.410;2023-02-04T00:01:26;5.80;21.40
13711;DHT22;6927;51.256;9.410;2023-02-04T00:04:05;5.80;8.80
13711;DHT22;6927;51.256;9.410;2023-02-04T00:06:40;5.80;45.70
13711;DHT22;6927;51.256;9.410;2023-02-04T00:09:05;5.80;10.90
13711;DHT22;6927;51.256;9.410;2023-02-04T00:11:37;5.80;99.90
13711;DHT22;6927;51.256;9.410;2023-02-04T00:14:03;5.80;3.90
13711;DHT22;6927;51.256;9.410;2023-02-04T00:19:20;5.80;99.90
13711;DHT22;6927;51.256;9.410;2023-02-04T00:21:47;5.90;99.90
13711;DHT22;6927;51.256;9.410;2023-02-04T00:24:40;5.80;99.90
13711;DHT22;6927;51.256;9.410;2023-02-04T00:27:07;5.80;99.90
13711;DHT22;6927;51.256;9.410;2023-02-04T00:29:33;5.80;99.90
13711;DHT22;6927;51.256;9.410;2023-02-04T00:32:05;5.80;69.20
13711;DHT22;6927;51.256;9.410;2023-02-04T00:34:30;5.80;15.80
13711;DHT22;6927;51.256;9.410;2023-02-04T00:36:56;5.80;99.90
13711;DHT22;6927;51.256;9.410;2023-02-04T00:39:25;5.80;34.50
13711;DHT22;6927;51.256;9.410;2023-02-04T00:41:59;5.80;1.00
13711;DHT22;6927;51.256;9.410;2023-02-04T00:44:28;5.90;99.90
13711;DHT22;6927;51.256;9.410;2023-02-04T00:46:56;5.80;99.90
13711;DHT22;6927;51.256;9.410;2023-02-04T00:49:25;5.80;99.90
13711;DHT22;6927;51.256;9.410;2023-02-04T00:51:53;5.70;99.90
13711;DHT22;6927;51.256;9.410;2023-02-04T00:54:21;5.70;99.90
13711;DHT22;6927;51.256;9.410;2023-02-04T00:56:46;5.70;99.90
13711;DHT22;6927;51.256;9.410;2023-02-04T00:59:12;5.70;99.90
13711;DHT22;6927;51.256;9.410;2023-02-04T01:01:38;5.60;99.90
13711;DHT22;6927;51.256;9.410;2023-02-04T01:04:04;5.50;99.90
13711;DHT22;6927;51.256;9.410;2023-02-04T01:06:29;5.50;99.90
13711;DHT22;6927;51.256;9.410;2023-02-04T01:08:55;5.40;99.90
13711;DHT22;6927;51.256;9.410;2023-02-04T01:11:37;5.30;99.90
13711;DHT22;6927;51.256;9.410;2023-02-04T01:14:06;5.20;99.90
13711;DHT22;6927;51.256;9.410;2023-02-04T01:16:32;5.10;99.90
13711;DHT22;6927;51.256;9.410;2023-02-04T01:18:58;5.10;99.90
13711;DHT22;6927;51.256;9.410;2023-02-04T01:21:25;5.00;99.90
13711;DHT22;6927;51.256;9.410;2023-02-04T01:23:53;5.00;99.90
13711;DHT22;6927;51.256;9.410;2023-02-04T01:26:22;5.00;99.90
13711;DHT22;6927;51.256;9.410;2023-02-04T01:28:48;5.00;99.90
13711;DHT22;6927;51.256;9.410;2023-02-04T01:31:14;5.00;99.90
13711;DHT22;6927;51.256;9.410;2023-02-04T01:33:39;5.00;99.90
13711;DHT22;6927;51.256;9.410;2023-02-04T01:45:24;4.90;99.90
13711;DHT22;6927;51.256;9.410;2023-02-04T01:47:50;4.90;99.90
13711;DHT22;6927;51.256;9.410;2023-02-04T01:50:16;4.90;99.90
13711;DHT22;6927;51.256;9.410;2023-02-04T01:52:43;4.80;99.90
13711;DHT22;6927;51.256;9.410;2023-02-04T01:55:18;4.80;99.90
13711;DHT22;6927;51.256;9.410;2023-02-04T01:57:44;4.80;99.90
13711;DHT22;6927;51.256;9.410;2023-02-04T02:00:21;4.80;99.90
13711;DHT22;6927;51.256;9.410;2023-02-04T02:02:49;4.80;99.90
13711;DHT22;6927;51.256;9.410;2023-02-04T02:05:18;4.80;99.90
13711;DHT22;6927;51.256;9.410;2023-02-04T02:07:45;4.80;99.90
13711;DHT22;6927;51.256;9.410;2023-02-04T02:10:13;4.90;99.90
13711;DHT22;6927;51.256;9.410;2023-02-04T02:12:40;4.90;99.90
13711;DHT22;6927;51.256;9.410;2023-02-04T02:15:07;4.90;99.90
13711;DHT22;6927;51.256;9.410;2023-02-04T02:17:32;4.90;99.90
13711;DHT22;6927;51.256;9.410;2023-02-04T02:19:58;4.90;99.90
13711;DHT22;6927;51.256;9.410;2023-02-04T02:22:28;5.00;99.90
13711;DHT22;6927;51.256;9.410;2023-02-04T02:24:54;5.00;99.90
13711;DHT22;6927;51.256;9.410;2023-02-04T02:27:20;5.10;99.90
13711;DHT22;6927;51.256;9.410;2023-02-04T02:29:46;5.10;99.90
13711;DHT22;6927;51.256;9.410;2023-02-04T02:32:13;5.10;99.90
13711;DHT22;6927;51.256;9.410;2023-02-04T02:34:40;5.10;99.90
13711;DHT22;6927;51.256;9.410;2023-02-04T02:37:06;5.00;99.90
13711;DHT22;6927;51.256;9.410;2023-02-04T02:39:36;5.00;99.90
13711;DHT22;6927;51.256;9.410;2023-02-04T02:42:02;5.00;99.90
13711;DHT22;6927;51.256;9.410;2023-02-04T02:44:28;5.00;99.90
13711;DHT22;6927;51.256;9.410;2023-02-04T02:46:54;4.90;99.90
13711;DHT22;6927;51.256;9.410;2023-02-04T02:49:20;4.90;99.90
13711;DHT22;6927;51.256;9.410;2023-02-04T02:51:47;5.00;99.90
13711;DHT22;6927;51.256;9.410;2023-02-04T02:54:29;5.00;99.90
13711;DHT22;6927;51.256;9.410;2023-02-04T02:56:55;5.00;99.90
13711;DHT22;6927;51.256;9.410;2023-02-04T02:59:21;5.00;99.90
13711;DHT22;6927;51.256;9.410;2023-02-04T03:01:50;5.00;99.90
13711;DHT22;6927;51.256;9.410;2023-02-04T03:04:19;5.00;99.90
13711;DHT22;6927;51.256;9.410;2023-02-04T03:06:46;5.00;99.90
13711;DHT22;6927;51.256;9.410;2023-02-04T03:09:12;5.00;99.90
13711;DHT22;6927;51.256;9.410;2023-02-04T03:11:38;5.10;99.90
13711;DHT22;6927;51.256;9.410;2023-02-04T03:14:04;5.10;99.90
13711;DHT22;6927;51.256;9.410;2023-02-04T03:16:31;5.10;99.90
13711;DHT22;6927;51.256;9.410;2023-02-04T03:18:59;5.10;99.90
13711;DHT22;6927;51.256;9.410;2023-02-04T03:21:25;5.10;99.90
13711;DHT22;6927;51.256;9.410;2023-02-04T03:23:51;5.20;99.90
13711;DHT22;6927;51.256;9.410;2023-02-04T03:26:21;5.20;99.90
13711;DHT22;6927;51.256;9.410;2023-02-04T03:28:47;5.10;99.90
13711;DHT22;6927;51.256;9.410;2023-02-04T03:31:13;5.10;99.90
13711;DHT22;6927;51.256;9.410;2023-02-04T03:33:38;5.20;99.90
13711;DHT22;6927;51.256;9.410;2023-02-04T03:36:04;5.20;99.90
13711;DHT22;6927;51.256;9.410;2023-02-04T03:38:30;5.20;99.90
13711;DHT22;6927;51.256;9.410;2023-02-04T03:40:58;5.20;99.90
13711;DHT22;6927;51.256;9.410;2023-02-04T03:43:23;5.10;99.90
13711;DHT22;6927;51.256;9.410;2023-02-04T03:45:49;5.20;99.90
13711;DHT22;6927;51.256;9.410;2023-02-04T03:48:15;5.20;99.90
13711;DHT22;6927;51.256;9.410;2023-02-04T03:50:40;5.10;99.90
13711;DHT22;6927;51.256;9.410;2023-02-04T03:53:06;5.10;99.90
13711;DHT22;6927;51.256;9.410;2023-02-04T03:55:32;4.90;99.90
13711;DHT22;6927;51.256;9.410;2023-02-04T03:57:57;4.80;99.90
13711;DHT22;6927;51.256;9.410;2023-02-04T04:00:23;4.70;99.90
13711;DHT22;6927;51.256;9.410;2023-02-04T04:02:49;4.60;99.90
13711;DHT22;6927;51.256;9.410;2023-02-04T04:05:15;4.60;99.90
13711;DHT22;6927;51.256;9.410;2023-02-04T04:07:40;4.60;99.90
13711;DHT22;6927;51.256;9.410;2023-02-04T04:10:06;4.60;99.90
13711;DHT22;6927;51.256;9.410;2023-02-04T04:12:32;4.50;99.90
13711;DHT22;6927;51.256;9.410;2023-02-04T04:14:57;4.50;99.90
13711;DHT22;6927;51.256;9.410;2023-02-04T04:17:23;4.50;99.90
13711;DHT22;6927;51.256;9.410;2023-02-04T04:19:48;4.50;99.90
13711;DHT22;6927;51.256;9.410;2023-02-04T04:22:14;4.50;99.90
13711;DHT22;6927;51.256;9.410;2023-02-04T04:24:40;4.50;99.90
13711;DHT22;6927;51.256;9.410;2023-02-04T04:27:06;4.50;99.90
13711;DHT22;6927;51.256;9.410;2023-02-04T04:29:31;4.40;99.90
13711;DHT22;6927;51.256;9.410;2023-02-04T04:31:57;4.40;99.90
13711;DHT22;6927;51.256;9.410;2023-02-04T04:34:22;4.40;99.90
13711;DHT22;6927;51.256;9.410;2023-02-04T04:36:48;4.30;99.90
13711;DHT22;6927;51.256;9.410;2023-02-04T04:39:13;4.40;99.90
13711;DHT22;6927;51.256;9.410;2023-02-04T04:41:39;4.30;99.90
13711;DHT22;6927;51.256;9.410;2023-02-04T04:44:05;4.30;99.90
13711;DHT22;6927;51.256;9.410;2023-02-04T04:46:30;4.30;99.90
13711;DHT22;6927;51.256;9.410;2023-02-04T04:48:56;4.30;99.90
13711;DHT22;6927;51.256;9.410;2023-02-04T04:51:21;4.30;99.90
13711;DHT22;6927;51.256;9.410;2023-02-04T04:53:47;4.30;99.90
13711;DHT22;6927;51.256;9.410;2023-02-04T04:56:13;4.30;99.90
13711;DHT22;6927;51.256;9.410;2023-02-04T04:58:38;4.30;99.90
13711;DHT22;6927;51.256;9.410;2023-02-04T05:01:04;4.30;99.90
13711;DHT22;6927;51.256;9.410;2023-02-04T05:03:29;4.30;99.90
13711;DHT22;6927;51.256;9.410;2023-02-04T05:05:55;4.30;99.90
13711;DHT22;6927;51.256;9.410;2023-02-04T05:08:20;4.30;99.90
13711;DHT22;6927;51.256;9.410;2023-02-04T05:10:46;4.30;99.90
13711;DHT22;6927;51.256;9.410;2023-02-04T05:13:12;4.30;99.90
13711;DHT22;6927;51.256;9.410;2023-02-04T05:15:37;4.30;99.90
13711;DHT22;6927;51.256;9.410;2023-02-04T05:18:03;4.30;99.90
13711;DHT22;6927;51.256;9.410;2023-02-04T05:20:29;4.30;99.90
13711;DHT22;6927;51.256;9.410;2023-02-04T05:22:55;4.30;99.90
13711;DHT22;6927;51.256;9.410;2023-02-04T05:25:21;4.30;99.90
13711;DHT22;6927;51.256;9.410;2023-02-04T05:27:47;4.20;99.90
13711;DHT22;6927;51.256;9.410;2023-02-04T05:30:13;4.20;99.90
13711;DHT22;6927;51.256;9.410;2023-02-04T05:32:39;4.20;99.90
13711;DHT22;6927;51.256;9.410;2023-02-04T05:35:05;4.20;99.90
13711;DHT22;6927;51.256;9.410;2023-02-04T05:37:31;4.20;99.90
13711;DHT22;6927;51.256;9.410;2023-02-04T05:39:56;4.10;99.90
13711;DHT22;6927;51.256;9.410;2023-02-04T05:42:22;4.10;99.90
13711;DHT22;6927;51.256;9.410;2023-02-04T05:44:48;4.10;99.90
13711;DHT22;6927;51.256;9.410;2023-02-04T05:47:13;4.10;99.90
13711;DHT22;6927;51.256;9.410;2023-02-04T05:49:39;4.00;99.90
13711;DHT22;6927;51.256;9.410;2023-02-04T05:52:05;4.00;99.90
13711;DHT22;6927;51.256;9.410;2023-02-04T05:54:30;4.00;99.90
13711;DHT22;6927;51.256;9.410;2023-02-04T05:56:56;4.00;99.90
13711;DHT22;6927;51.256;9.410;2023-02-04T05:59:21;3.90;99.90
13711;DHT22;6927;51.256;9.410;2023-02-04T06:01:47;3.90;99.90
13711;DHT22;6927;51.256;9.410;2023-02-04T06:04:13;4.00;99.90
13711;DHT22;6927;51.256;9.410;2023-02-04T06:06:41;4.00;99.90
13711;DHT22;6927;51.256;9.410;2023-02-04T06:09:06;4.00;99.90
13711;DHT22;6927;51.256;9.410;2023-02-04T06:11:32;3.90;99.90
13711;DHT22;6927;51.256;9.410;2023-02-04T06:13:57;3.90;99.90
13711;DHT22;6927;51.256;9.410;2023-02-04T06:16:23;3.80;99.90
13711;DHT22;6927;51.256;9.410;2023-02-04T06:18:49;3.70;99.90
13711;DHT22;6927;51.256;9.410;2023-02-04T06:21:14;3.60;99.90
13711;DHT22;6927;51.256;9.410;2023-02-04T06:23:40;3.50;99.90
13711;DHT22;6927;51.256;9.410;2023-02-04T06:26:05;3.30;99.90
13711;DHT22;6927;51.256;9.410;2023-02-04T06:28:31;3.20;99.90
13711;DHT22;6927;51.256;9.410;2023-02-04T06:30:57;3.10;99.90
13711;DHT22;6927;51.256;9.410;2023-02-04T06:33:24;3.00;99.90
13711;DHT22;6927;51.256;9.410;2023-02-04T06:35:49;3.00;99.90
13711;DHT22;6927;51.256;9.410;2023-02-04T06:38:15;3.00;99.90
13711;DHT22;6927;51.256;9.410;2023-02-04T06:40:41;3.00;99.90
13711;DHT22;6927;51.256;9.410;2023-02-04T06:43:06;3.00;99.90
13711;DHT22;6927;51.256;9.410;2023-02-04T06:45:32;3.00;99.90
13711;DHT22;6927;51.256;9.410;2023-02-04T06:47:58;3.00;99.90
13711;DHT22;6927;51.256;9.410;2023-02-04T06:50:24;2.90;99.90
13711;DHT22;6927;51.256;9.410;2023-02-04T06:52:49;2.90;99.90
13711;DHT22;6927;51.256;9.410;2023-02-04T06:55:15;2.90;99.90
13711;DHT22;6927;51.256;9.410;2023-02-04T06:57:41;2.90;99.90
13711;DHT22;6927;51.256;9.410;2023-02-04T07:00:08;2.80;99.90
13711;DHT22;6927;51.256;9.410;2023-02-04T07:02:34;2.80;99.90
13711;DHT22;6927;51.256;9.410;2023-02-04T07:05:02;2.80;99.90
13711;DHT22;6927;51.256;9.410;2023-02-04T07:07:28;2.80;99.90
13711;DHT22;6927;51.256;9.410;2023-02-04T07:09:53;2.80;99.90
13711;DHT22;6927;51.256;9.410;2023-02-04T07:12:19;2.80;99.90
13711;DHT22;6927;51.256;9.410;2023-02-04T07:14:44;2.80;99.90
13711;DHT22;6927;51.256;9.410;2023-02-04T07:17:10;2.90;99.90
13711;DHT22;6927;51.256;9.410;2023-02-04T07:19:35;2.90;99.90
13711;DHT22;6927;51.256;9.410;2023-02-04T07:22:02;2.90;99.90
13711;DHT22;6927;51.256;9.410;2023-02-04T07:24:28;3.00;99.90
13711;DHT22;6927;51.256;9.410;2023-02-04T07:26:54;3.00;99.90
13711;DHT22;6927;51.256;9.410;2023-02-04T07:29:19;3.00;99.90
13711;DHT22;6927;51.256;9.410;2023-02-04T07:31:45;3.00;99.90
13711;DHT22;6927;51.256;9.410;2023-02-04T07:34:12;3.20;99.90
13711;DHT22;6927;51.256;9.410;2023-02-04T07:36:38;3.60;99.90
13711;DHT22;6927;51.256;9.410;2023-02-04T07:39:04;4.00;99.90
13711;DHT22;6927;51.256;9.410;2023-02-04T07:41:29;4.60;99.90
13711;DHT22;6927;51.256;9.410;2023-02-04T07:43:55;5.20;99.90
13711;DHT22;6927;51.256;9.410;2023-02-04T07:46:20;5.70;99.90
13711;DHT22;6927;51.256;9.410;2023-02-04T07:48:46;5.80;1.00
13711;DHT22;6927;51.256;9.410;2023-02-04T07:51:12;5.90;1.00
13711;DHT22;6927;51.256;9.410;2023-02-04T07:53:37;6.10;1.00
13711;DHT22;6927;51.256;9.410;2023-02-04T07:56:03;5.80;1.00
13711;DHT22;6927;51.256;9.410;2023-02-04T07:58:28;5.60;1.00
13711;DHT22;6927;51.256;9.410;2023-02-04T08:00:54;5.40;1.00
13711;DHT22;6927;51.256;9.410;2023-02-04T08:03:19;5.20;82.10
13711;DHT22;6927;51.256;9.410;2023-02-04T08:05:45;5.00;99.40
13711;DHT22;6927;51.256;9.410;2023-02-04T08:08:10;4.90;99.90
13711;DHT22;6927;51.256;9.410;2023-02-04T08:10:36;4.90;99.90
13711;DHT22;6927;51.256;9.410;2023-02-04T08:13:02;4.70;99.90
13711;DHT22;6927;51.256;9.410;2023-02-04T08:15:27;4.50;99.90
13711;DHT22;6927;51.256;9.410;2023-02-04T08:17:53;4.40;99.90
13711;DHT22;6927;51.256;9.410;2023-02-04T08:20:18;4.50;99.90
13711;DHT22;6927;51.256;9.410;2023-02-04T08:22:44;4.60;99.90
13711;DHT22;6927;51.256;9.410;2023-02-04T08:25:11;4.50;99.90
13711;DHT22;6927;51.256;9.410;2023-02-04T08:27:37;4.50;99.90
13711;DHT22;6927;51.256;9.410;2023-02-04T08:30:03;4.50;99.90
13711;DHT22;6927;51.256;9.410;2023-02-04T08:32:29;4.40;99.90
13711;DHT22;6927;51.256;9.410;2023-02-04T08:34:56;4.40;99.90
13711;DHT22;6927;51.256;9.410;2023-02-04T08:37:22;4.60;99.90
13711;DHT22;6927;51.256;9.410;2023-02-04T08:39:47;4.70;99.90
13711;DHT22;6927;51.256;9.410;2023-02-04T08:42:13;4.90;99.90
13711;DHT22;6927;51.256;9.410;2023-02-04T08:44:39;5.20;56.60
13711;DHT22;6927;51.256;9.410;2023-02-04T08:47:05;5.20;93.30
13711;DHT22;6927;51.256;9.410;2023-02-04T08:49:30;5.30;84.40
13711;DHT22;6927;51.256;9.410;2023-02-04T08:51:56;5.30;99.90
13711;DHT22;6927;51.256;9.410;2023-02-04T08:54:21;5.30;93.40
13711;DHT22;6927;51.256;9.410;2023-02-04T08:56:47;5.50;1.60
13711;DHT22;6927;51.256;9.410;2023-02-04T08:59:12;5.40;1.00
13711;DHT22;6927;51.256;9.410;2023-02-04T09:01:41;5.50;1.00
13711;DHT22;6927;51.256;9.410;2023-02-04T09:50:41;5.70;1.00
13711;DHT22;6927;51.256;9.410;2023-02-04T09:53:15;5.60;99.90
13711;DHT22;6927;51.256;9.410;2023-02-04T09:56:14;5.50;99.90
13711;DHT22;6927;51.256;9.410;2023-02-04T09:58:41;5.40;1.00
13711;DHT22;6927;51.256;9.410;2023-02-04T10:01:17;5.50;99.90
13711;DHT22;6927;51.256;9.410;2023-02-04T10:03:44;5.80;1.00
13711;DHT22;6927;51.256;9.410;2023-02-04T10:06:17;6.20;99.90
13711;DHT22;6927;51.256;9.410;2023-02-04T10:08:55;6.50;28.40
13711;DHT22;6927;51.256;9.410;2023-02-04T10:11:30;6.70;99.90
13711;DHT22;6927;51.256;9.410;2023-02-04T10:13:58;6.50;34.40
13711;DHT22;6927;51.256;9.410;2023-02-04T10:16:30;6.50;1.00
13711;DHT22;6927;51.256;9.410;2023-02-04T10:21:31;6.50;99.90
13711;DHT22;6927;51.256;9.410;2023-02-04T10:24:01;6.40;99.90
13711;DHT22;6927;51.256;9.410;2023-02-04T10:26:33;6.30;1.00
13711;DHT22;6927;51.256;9.410;2023-02-04T10:29:07;6.10;99.90
13711;DHT22;6927;51.256;9.410;2023-02-04T10:31:37;6.20;99.90
13711;DHT22;6927;51.256;9.410;2023-02-04T10:36:38;6.00;9.60
13711;DHT22;6927;51.256;9.410;2023-02-04T10:39:15;6.10;99.90
13711;DHT22;6927;51.256;9.410;2023-02-04T10:41:47;6.10;14.70
13711;DHT22;6927;51.256;9.410;2023-02-04T10:44:45;6.00;1.00
13711;DHT22;6927;51.256;9.410;2023-02-04T10:50:14;6.10;14.80
13711;DHT22;6927;51.256;9.410;2023-02-04T10:52:47;6.20;1.00
13711;DHT22;6927;51.256;9.410;2023-02-04T10:55:18;6.30;99.90
13711;DHT22;6927;51.256;9.410;2023-02-04T10:57:47;6.30;1.00
13711;DHT22;6927;51.256;9.410;2023-02-04T11:00:29;6.50;1.00
13711;DHT22;6927;51.256;9.410;2023-02-04T11:03:06;6.80;99.90
13711;DHT22;6927;51.256;9.410;2023-02-04T11:05:38;7.50;1.00
13711;DHT22;6927;51.256;9.410;2023-02-04T11:08:23;8.20;1.00
13711;DHT22;6927;51.256;9.410;2023-02-04T11:11:10;7.70;1.00
13711;DHT22;6927;51.256;9.410;2023-02-04T11:14:00;7.30;99.90
13711;DHT22;6927;51.256;9.410;2023-02-04T11:16:46;6.90;99.90
13711;DHT22;6927;51.256;9.410;2023-02-04T11:19:14;6.80;1.00
13711;DHT22;6927;51.256;9.410;2023-02-04T11:21:44;6.60;1.00
13711;DHT22;6927;51.256;9.410;2023-02-04T11:26:52;6.40;99.90
13711;DHT22;6927;51.256;9.410;2023-02-04T11:29:36;6.20;1.00
13711;DHT22;6927;51.256;9.410;2023-02-04T11:32:27;6.20;1.00
13711;DHT22;6927;51.256;9.410;2023-02-04T11:35:22;6.30;1.00
13711;DHT22;6927;51.256;9.410;2023-02-04T11:38:24;6.20;1.00
13711;DHT22;6927;51.256;9.410;2023-02-04T11:41:42;6.00;99.90
13711;DHT22;6927;51.256;9.410;2023-02-04T11:44:21;5.80;1.00
13711;DHT22;6927;51.256;9.410;2023-02-04T11:47:12;5.70;1.00
13711;DHT22;6927;51.256;9.410;2023-02-04T11:49:45;5.60;91.00
13711;DHT22;6927;51.256;9.410;2023-02-04T11:56:21;5.60;1.00
13711;DHT22;6927;51.256;9.410;2023-02-04T12:16:15;5.30;1.00
13711;DHT22;6927;51.256;9.410;2023-02-04T12:19:36;5.30;1.00
13711;DHT22;6927;51.256;9.410;2023-02-04T12:22:30;5.40;1.00
13711;DHT22;6927;51.256;9.410;2023-02-04T12:25:22;5.50;99.90
13711;DHT22;6927;51.256;9.410;2023-02-04T12:32:00;5.60;41.60
13711;DHT22;6927;51.256;9.410;2023-02-04T12:41:28;5.90;1.00
13711;DHT22;6927;51.256;9.410;2023-02-04T12:44:20;6.10;1.00
13711;DHT22;6927;51.256;9.410;2023-02-04T12:46:45;6.40;1.00
13711;DHT22;6927;51.256;9.410;2023-02-04T12:49:11;6.80;99.90
13711;DHT22;6927;51.256;9.410;2023-02-04T12:51:36;7.00;1.00
13711;DHT22;6927;51.256;9.410;2023-02-04T12:54:02;6.80;1.00
13711;DHT22;6927;51.256;9.410;2023-02-04T12:56:28;6.50;99.90
13711;DHT22;6927;51.256;9.410;2023-02-04T12:58:53;6.40;99.90
13711;DHT22;6927;51.256;9.410;2023-02-04T13:01:19;6.30;1.00
13711;DHT22;6927;51.256;9.410;2023-02-04T13:03:44;6.20;1.00
13711;DHT22;6927;51.256;9.410;2023-02-04T13:06:10;6.20;99.90
13711;DHT22;6927;51.256;9.410;2023-02-04T13:08:36;6.00;99.90
13711;DHT22;6927;51.256;9.410;2023-02-04T13:11:01;6.10;99.90
13711;DHT22;6927;51.256;9.410;2023-02-04T13:13:27;6.00;1.00
13711;DHT22;6927;51.256;9.410;2023-02-04T13:15:52;6.00;1.00
13711;DHT22;6927;51.256;9.410;2023-02-04T13:18:18;6.00;1.00
13711;DHT22;6927;51.256;9.410;2023-02-04T13:20:43;5.90;1.00
13711;DHT22;6927;51.256;9.410;2023-02-04T13:23:10;5.90;99.90
13711;DHT22;6927;51.256;9.410;2023-02-04T13:25:35;5.90;99.90
13711;DHT22;6927;51.256;9.410;2023-02-04T13:28:01;5.90;99.90
13711;DHT22;6927;51.256;9.410;2023-02-04T13:30:27;5.90;50.00
13711;DHT22;6927;51.256;9.410;2023-02-04T13:32:52;6.00;1.00
13711;DHT22;6927;51.256;9.410;2023-02-04T13:35:18;6.10;1.00
13711;DHT22;6927;51.256;9.410;2023-02-04T13:37:43;6.30;99.90
13711;DHT22;6927;51.256;9.410;2023-02-04T13:40:10;6.50;99.90
13711;DHT22;6927;51.256;9.410;2023-02-04T13:42:36;6.40;99.90
13711;DHT22;6927;51.256;9.410;2023-02-04T13:45:01;6.50;99.90
13711;DHT22;6927;51.256;9.410;2023-02-04T13:47:27;6.60;99.90
13711;DHT22;6927;51.256;9.410;2023-02-04T13:49:53;6.60;1.00
13711;DHT22;6927;51.256;9.410;2023-02-04T13:52:18;6.70;10.20
13711;DHT22;6927;51.256;9.410;2023-02-04T13:54:44;7.00;1.00
13711;DHT22;6927;51.256;9.410;2023-02-04T13:57:10;6.90;10.40
13711;DHT22;6927;51.256;9.410;2023-02-04T13:59:35;6.70;1.00
13711;DHT22;6927;51.256;9.410;2023-02-04T14:02:01;6.60;1.00
13711;DHT22;6927;51.256;9.410;2023-02-04T14:04:27;6.50;80.30
13711;DHT22;6927;51.256;9.410;2023-02-04T14:06:52;6.50;99.90
13711;DHT22;6927;51.256;9.410;2023-02-04T14:09:19;6.50;99.90
13711;DHT22;6927;51.256;9.410;2023-02-04T14:11:46;6.50;99.90
13711;DHT22;6927;51.256;9.410;2023-02-04T14:14:11;6.60;99.90
13711;DHT22;6927;51.256;9.410;2023-02-04T14:16:37;6.70;1.00
13711;DHT22;6927;51.256;9.410;2023-02-04T14:19:02;6.80;99.90
13711;DHT22;6927;51.256;9.410;2023-02-04T14:21:28;6.80;99.90
13711;DHT22;6927;51.256;9.410;2023-02-04T14:23:54;6.80;99.90
13711;DHT22;6927;51.256;9.410;2023-02-04T14:26:19;6.70;1.00
13711;DHT22;6927;51.256;9.410;2023-02-04T14:28:45;6.60;51.00
13711;DHT22;6927;51.256;9.410;2023-02-04T14:31:12;6.60;1.00
13711;DHT22;6927;51.256;9.410;2023-02-04T14:33:38;6.50;1.00
13711;DHT22;6927;51.256;9.410;2023-02-04T14:36:04;6.30;1.00
13711;DHT22;6927;51.256;9.410;2023-02-04T14:38:29;6.20;1.00
13711;DHT22;6927;51.256;9.410;2023-02-04T14:40:56;6.20;99.90
13711;DHT22;6927;51.256;9.410;2023-02-04T14:43:22;6.10;1.00
13711;DHT22;6927;51.256;9.410;2023-02-04T14:45:48;6.00;1.00
13711;DHT22;6927;51.256;9.410;2023-02-04T14:48:14;6.00;1.00
13711;DHT22;6927;51.256;9.410;2023-02-04T14:50:39;6.10;99.90
13711;DHT22;6927;51.256;9.410;2023-02-04T14:53:05;6.30;99.90
13711;DHT22;6927;51.256;9.410;2023-02-04T14:55:30;6.60;99.90
13711;DHT22;6927;51.256;9.410;2023-02-04T14:57:56;6.60;99.90
13711;DHT22;6927;51.256;9.410;2023-02-04T15:00:21;6.50;99.90
13711;DHT22;6927;51.256;9.410;2023-02-04T15:02:47;6.50;1.00
13711;DHT22;6927;51.256;9.410;2023-02-04T15:05:13;6.40;1.80
13711;DHT22;6927;51.256;9.410;2023-02-04T15:07:39;6.30;1.00
13711;DHT22;6927;51.256;9.410;2023-02-04T15:10:06;6.20;1.00
13711;DHT22;6927;51.256;9.410;2023-02-04T15:12:32;6.10;1.00
13711;DHT22;6927;51.256;9.410;2023-02-04T15:14:58;6.00;1.00
13711;DHT22;6927;51.256;9.410;2023-02-04T15:17:23;6.00;1.00
13711;DHT22;6927;51.256;9.410;2023-02-04T15:19:49;6.00;99.90
13711;DHT22;6927;51.256;9.410;2023-02-04T15:22:14;6.10;99.90
13711;DHT22;6927;51.256;9.410;2023-02-04T15:24:40;6.10;1.00
13711;DHT22;6927;51.256;9.410;2023-02-04T15:27:06;6.10;99.90
13711;DHT22;6927;51.256;9.410;2023-02-04T15:29:31;6.20;99.90
13711;DHT22;6927;51.256;9.410;2023-02-04T15:31:57;6.20;1.00
13711;DHT22;6927;51.256;9.410;2023-02-04T15:34:23;6.10;99.90
13711;DHT22;6927;51.256;9.410;2023-02-04T15:36:48;6.00;38.00
13711;DHT22;6927;51.256;9.410;2023-02-04T15:39:14;5.90;1.00
13711;DHT22;6927;51.256;9.410;2023-02-04T15:41:39;5.80;99.90
13711;DHT22;6927;51.256;9.410;2023-02-04T15:44:05;5.70;99.90
13711;DHT22;6927;51.256;9.410;2023-02-04T15:46:31;5.60;99.90
13711;DHT22;6927;51.256;9.410;2023-02-04T15:48:57;5.50;1.00
13711;DHT22;6927;51.256;9.410;2023-02-04T15:51:23;5.50;1.00
13711;DHT22;6927;51.256;9.410;2023-02-04T15:53:49;5.50;1.00
13711;DHT22;6927;51.256;9.410;2023-02-04T15:56:14;5.50;1.00
13711;DHT22;6927;51.256;9.410;2023-02-04T15:58:40;5.50;1.00
13711;DHT22;6927;51.256;9.410;2023-02-04T16:01:06;5.40;1.00
13711;DHT22;6927;51.256;9.410;2023-02-04T16:03:31;5.40;1.00
13711;DHT22;6927;51.256;9.410;2023-02-04T16:05:57;5.30;1.00
13711;DHT22;6927;51.256;9.410;2023-02-04T16:08:22;5.20;1.00
13711;DHT22;6927;51.256;9.410;2023-02-04T16:10:48;5.10;99.90
13711;DHT22;6927;51.256;9.410;2023-02-04T16:13:13;5.00;1.00
13711;DHT22;6927;51.256;9.410;2023-02-04T16:15:39;4.90;1.00
13711;DHT22;6927;51.256;9.410;2023-02-04T16:18:05;4.90;1.00
13711;DHT22;6927;51.256;9.410;2023-02-04T16:20:30;4.80;99.90
13711;DHT22;6927;51.256;9.410;2023-02-04T16:22:56;4.80;99.90
13711;DHT22;6927;51.256;9.410;2023-02-04T16:25:22;4.70;99.90
13711;DHT22;6927;51.256;9.410;2023-02-04T16:27:48;4.60;1.00
13711;DHT22;6927;51.256;9.410;2023-02-04T16:30:14;4.60;99.90
13711;DHT22;6927;51.256;9.410;2023-02-04T16:32:40;4.50;1.00
13711;DHT22;6927;51.256;9.410;2023-02-04T16:35:06;4.50;99.90
13711;DHT22;6927;51.256;9.410;2023-02-04T16:37:32;4.40;1.00
13711;DHT22;6927;51.256;9.410;2023-02-04T16:39:59;4.40;12.50
13711;DHT22;6927;51.256;9.410;2023-02-04T16:42:24;4.30;1.00
13711;DHT22;6927;51.256;9.410;2023-02-04T16:44:50;4.30;1.00
13711;DHT22;6927;51.256;9.410;2023-02-04T16:47:15;4.30;1.00
13711;DHT22;6927;51.256;9.410;2023-02-04T16:49:41;4.20;99.90
13711;DHT22;6927;51.256;9.410;2023-02-04T16:52:09;4.10;1.00
13711;DHT22;6927;51.256;9.410;2023-02-04T16:54:35;4.10;99.90
13711;DHT22;6927;51.256;9.410;2023-02-04T16:57:01;4.00;1.00
13711;DHT22;6927;51.256;9.410;2023-02-04T16:59:28;4.00;1.00
13711;DHT22;6927;51.256;9.410;2023-02-04T17:01:55;3.90;99.90
13711;DHT22;6927;51.256;9.410;2023-02-04T17:04:22;3.80;99.90
13711;DHT22;6927;51.256;9.410;2023-02-04T17:06:48;3.70;1.00
13711;DHT22;6927;51.256;9.410;2023-02-04T17:09:14;3.60;1.00
13711;DHT22;6927;51.256;9.410;2023-02-04T17:11:40;3.60;1.00
13711;DHT22;6927;51.256;9.410;2023-02-04T17:14:08;3.50;1.00
13711;DHT22;6927;51.256;9.410;2023-02-04T17:16:35;3.40;1.00
13711;DHT22;6927;51.256;9.410;2023-02-04T17:19:01;3.30;49.90
13711;DHT22;6927;51.256;9.410;2023-02-04T17:21:28;3.30;92.50
13711;DHT22;6927;51.256;9.410;2023-02-04T17:23:54;3.20;99.90
13711;DHT22;6927;51.256;9.410;2023-02-04T17:26:21;3.10;99.90
13711;DHT22;6927;51.256;9.410;2023-02-04T17:28:51;3.00;99.90
13711;DHT22;6927;51.256;9.410;2023-02-04T17:31:19;2.90;99.90
13711;DHT22;6927;51.256;9.410;2023-02-04T17:33:45;2.90;99.90
13711;DHT22;6927;51.256;9.410;2023-02-04T17:36:13;2.90;99.90
13711;DHT22;6927;51.256;9.410;2023-02-04T17:38:40;2.80;99.90
13711;DHT22;6927;51.256;9.410;2023-02-04T17:41:05;2.70;99.90
13711;DHT22;6927;51.256;9.410;2023-02-04T17:43:31;2.60;99.90
13711;DHT22;6927;51.256;9.410;2023-02-04T17:45:58;2.60;99.90
13711;DHT22;6927;51.256;9.410;2023-02-04T17:48:24;2.60;99.90
13711;DHT22;6927;51.256;9.410;2023-02-04T17:50:49;2.50;99.90